Tuxford, United Kingdom
Current Conditions -  °F | °C
As of 8:50 AM on Monday 24 Nov 2014 (Local Time) from EGXP Reporting Station
Scattered Clouds Scattered Clouds  
Wind Chill: 28°   Ceiling: Unl
Heat Index: 36°   Visibility: 6mi
Dew Point: 36°   Wind: 12mph
Humidity: 100%   Direction: 230°SW
Pressure: 30.24"   Gusts: NA
Location:  53.23°N, 0.89°W
Report Text: EGXP 240850Z 23010KT 9999 SCT032 02/02 Q1024 BLU
Loading
Personal Weather Stations






























Interactive Weather Map New forecast layout! Learn more

10-Day Weather Forecast

Advertisements
Track Severe Weather on mobile